sensor_id;sensor_type;location;lat;lon;timestamp;P1;durP1;ratioP1;P2;durP2;ratioP2
35364;SDS011;21464;48.112;11.530;2023-10-19T00:00:33;17.60;;;15.73;;
35364;SDS011;21464;48.112;11.530;2023-10-19T00:03:02;18.25;;;16.05;;
35364;SDS011;21464;48.112;11.530;2023-10-19T00:05:29;17.38;;;15.25;;
35364;SDS011;21464;48.112;11.530;2023-10-19T00:07:56;18.02;;;16.13;;
35364;SDS011;21464;48.112;11.530;2023-10-19T00:10:26;19.20;;;15.90;;
35364;SDS011;21464;48.112;11.530;2023-10-19T00:13:01;17.05;;;15.27;;
35364;SDS011;21464;48.112;11.530;2023-10-19T00:15:34;17.52;;;15.60;;
35364;SDS011;21464;48.112;11.530;2023-10-19T00:18:06;17.52;;;14.60;;
35364;SDS011;21464;48.112;11.530;2023-10-19T00:20:53;18.63;;;15.40;;
35364;SDS011;21464;48.112;11.530;2023-10-19T00:23:21;17.02;;;15.23;;
35364;SDS011;21464;48.112;11.530;2023-10-19T00:25:55;16.42;;;14.68;;
35364;SDS011;21464;48.112;11.530;2023-10-19T00:28:22;18.15;;;15.05;;
35364;SDS011;21464;48.112;11.530;2023-10-19T00:30:51;15.65;;;14.05;;
35364;SDS011;21464;48.112;11.530;2023-10-19T00:33:19;16.45;;;14.60;;
35364;SDS011;21464;48.112;11.530;2023-10-19T00:35:47;17.05;;;15.30;;
35364;SDS011;21464;48.112;11.530;2023-10-19T00:38:24;16.42;;;14.75;;
35364;SDS011;21464;48.112;11.530;2023-10-19T00:40:53;16.52;;;14.73;;
35364;SDS011;21464;48.112;11.530;2023-10-19T00:43:30;16.98;;;14.80;;
35364;SDS011;21464;48.112;11.530;2023-10-19T00:46:00;16.58;;;14.88;;
35364;SDS011;21464;48.112;11.530;2023-10-19T00:48:32;16.88;;;15.10;;
35364;SDS011;21464;48.112;11.530;2023-10-19T00:51:00;16.92;;;15.18;;
35364;SDS011;21464;48.112;11.530;2023-10-19T00:53:37;17.25;;;15.55;;
35364;SDS011;21464;48.112;11.530;2023-10-19T00:56:06;17.05;;;15.20;;
35364;SDS011;21464;48.112;11.530;2023-10-19T00:58:36;17.65;;;15.15;;
35364;SDS011;21464;48.112;11.530;2023-10-19T01:01:05;17.27;;;15.45;;
35364;SDS011;21464;48.112;11.530;2023-10-19T01:03:32;16.30;;;14.60;;
35364;SDS011;21464;48.112;11.530;2023-10-19T01:06:03;16.95;;;15.23;;
35364;SDS011;21464;48.112;11.530;2023-10-19T01:08:39;16.58;;;14.80;;
35364;SDS011;21464;48.112;11.530;2023-10-19T01:11:09;16.10;;;14.43;;
35364;SDS011;21464;48.112;11.530;2023-10-19T01:13:38;17.33;;;15.30;;
35364;SDS011;21464;48.112;11.530;2023-10-19T01:16:04;17.30;;;14.73;;
35364;SDS011;21464;48.112;11.530;2023-10-19T01:18:30;16.20;;;14.60;;
35364;SDS011;21464;48.112;11.530;2023-10-19T01:20:58;16.10;;;14.45;;
35364;SDS011;21464;48.112;11.530;2023-10-19T01:23:30;15.77;;;14.18;;
35364;SDS011;21464;48.112;11.530;2023-10-19T01:25:59;17.27;;;15.10;;
35364;SDS011;21464;48.112;11.530;2023-10-19T01:28:30;16.40;;;14.70;;
35364;SDS011;21464;48.112;11.530;2023-10-19T01:31:07;16.75;;;15.05;;
35364;SDS011;21464;48.112;11.530;2023-10-19T01:33:54;16.27;;;14.68;;
35364;SDS011;21464;48.112;11.530;2023-10-19T01:36:22;16.23;;;14.63;;
35364;SDS011;21464;48.112;11.530;2023-10-19T01:38:49;17.00;;;15.20;;
35364;SDS011;21464;48.112;11.530;2023-10-19T01:41:15;16.30;;;14.38;;
35364;SDS011;21464;48.112;11.530;2023-10-19T01:43:45;16.67;;;15.02;;
35364;SDS011;21464;48.112;11.530;2023-10-19T01:46:15;17.60;;;15.10;;
35364;SDS011;21464;48.112;11.530;2023-10-19T01:48:48;16.95;;;15.18;;
35364;SDS011;21464;48.112;11.530;2023-10-19T01:51:19;17.98;;;15.45;;
35364;SDS011;21464;48.112;11.530;2023-10-19T01:53:46;17.88;;;15.98;;
35364;SDS011;21464;48.112;11.530;2023-10-19T01:56:13;17.42;;;15.60;;
35364;SDS011;21464;48.112;11.530;2023-10-19T01:58:41;16.27;;;14.67;;
35364;SDS011;21464;48.112;11.530;2023-10-19T02:01:09;17.05;;;15.25;;
35364;SDS011;21464;48.112;11.530;2023-10-19T02:03:39;16.75;;;15.00;;
35364;SDS011;21464;48.112;11.530;2023-10-19T02:06:12;17.40;;;14.82;;
35364;SDS011;21464;48.112;11.530;2023-10-19T02:11:22;17.63;;;15.68;;
35364;SDS011;21464;48.112;11.530;2023-10-19T02:13:52;17.27;;;15.48;;
35364;SDS011;21464;48.112;11.530;2023-10-19T02:16:20;17.63;;;15.80;;
35364;SDS011;21464;48.112;11.530;2023-10-19T02:18:51;17.73;;;15.93;;
35364;SDS011;21464;48.112;11.530;2023-10-19T02:21:18;18.58;;;16.38;;
35364;SDS011;21464;48.112;11.530;2023-10-19T02:23:48;20.83;;;16.70;;
35364;SDS011;21464;48.112;11.530;2023-10-19T02:26:19;18.13;;;16.17;;
35364;SDS011;21464;48.112;11.530;2023-10-19T02:28:48;17.63;;;15.80;;
35364;SDS011;21464;48.112;11.530;2023-10-19T02:31:19;17.48;;;15.57;;
35364;SDS011;21464;48.112;11.530;2023-10-19T02:33:48;17.40;;;15.55;;
35364;SDS011;21464;48.112;11.530;2023-10-19T02:36:33;18.90;;;15.38;;
35364;SDS011;21464;48.112;11.530;2023-10-19T02:39:00;18.48;;;16.20;;
35364;SDS011;21464;48.112;11.530;2023-10-19T02:41:37;17.00;;;15.27;;
35364;SDS011;21464;48.112;11.530;2023-10-19T02:44:07;15.65;;;13.95;;
35364;SDS011;21464;48.112;11.530;2023-10-19T02:46:35;16.75;;;14.48;;
35364;SDS011;21464;48.112;11.530;2023-10-19T02:49:05;17.73;;;15.32;;
35364;SDS011;21464;48.112;11.530;2023-10-19T02:51:39;15.35;;;13.77;;
35364;SDS011;21464;48.112;11.530;2023-10-19T02:54:07;15.63;;;13.97;;
35364;SDS011;21464;48.112;11.530;2023-10-19T02:56:34;16.60;;;14.75;;
35364;SDS011;21464;48.112;11.530;2023-10-19T02:59:02;15.38;;;13.88;;
35364;SDS011;21464;48.112;11.530;2023-10-19T03:01:32;15.02;;;13.45;;
35364;SDS011;21464;48.112;11.530;2023-10-19T03:04:00;14.35;;;12.98;;
35364;SDS011;21464;48.112;11.530;2023-10-19T03:06:28;14.85;;;13.18;;
35364;SDS011;21464;48.112;11.530;2023-10-19T03:09:03;14.68;;;13.32;;
35364;SDS011;21464;48.112;11.530;2023-10-19T03:11:39;16.17;;;13.57;;
35364;SDS011;21464;48.112;11.530;2023-10-19T03:14:09;14.15;;;12.65;;
35364;SDS011;21464;48.112;11.530;2023-10-19T03:16:37;13.85;;;12.48;;
35364;SDS011;21464;48.112;11.530;2023-10-19T03:19:04;13.70;;;12.30;;
35364;SDS011;21464;48.112;11.530;2023-10-19T03:21:30;12.68;;;11.45;;
35364;SDS011;21464;48.112;11.530;2023-10-19T03:24:07;12.88;;;11.45;;
35364;SDS011;21464;48.112;11.530;2023-10-19T03:26:49;12.73;;;11.43;;
35364;SDS011;21464;48.112;11.530;2023-10-19T03:29:16;12.23;;;11.13;;
35364;SDS011;21464;48.112;11.530;2023-10-19T03:31:52;12.50;;;11.30;;
35364;SDS011;21464;48.112;11.530;2023-10-19T03:34:19;14.52;;;13.10;;
35364;SDS011;21464;48.112;11.530;2023-10-19T03:36:49;12.48;;;11.27;;
35364;SDS011;21464;48.112;11.530;2023-10-19T03:39:20;13.18;;;11.80;;
35364;SDS011;21464;48.112;11.530;2023-10-19T03:41:47;12.50;;;11.30;;
35364;SDS011;21464;48.112;11.530;2023-10-19T03:44:16;11.07;;;9.77;;
35364;SDS011;21464;48.112;11.530;2023-10-19T03:46:51;13.77;;;11.77;;
35364;SDS011;21464;48.112;11.530;2023-10-19T03:49:25;12.20;;;11.02;;
35364;SDS011;21464;48.112;11.530;2023-10-19T03:51:56;12.38;;;11.13;;
35364;SDS011;21464;48.112;11.530;2023-10-19T03:54:34;11.90;;;10.77;;
35364;SDS011;21464;48.112;11.530;2023-10-19T03:57:05;12.45;;;11.25;;
35364;SDS011;21464;48.112;11.530;2023-10-19T03:59:38;12.57;;;11.27;;
35364;SDS011;21464;48.112;11.530;2023-10-19T04:02:05;14.65;;;12.85;;
35364;SDS011;21464;48.112;11.530;2023-10-19T04:04:36;13.73;;;12.00;;
35364;SDS011;21464;48.112;11.530;2023-10-19T04:07:05;11.23;;;10.13;;
35364;SDS011;21464;48.112;11.530;2023-10-19T04:09:52;11.95;;;10.80;;
35364;SDS011;21464;48.112;11.530;2023-10-19T04:12:36;10.30;;;9.32;;
35364;SDS011;21464;48.112;11.530;2023-10-19T04:15:04;7.80;;;7.10;;
35364;SDS011;21464;48.112;11.530;2023-10-19T04:17:40;8.98;;;8.18;;
35364;SDS011;21464;48.112;11.530;2023-10-19T04:20:08;9.57;;;8.65;;
35364;SDS011;21464;48.112;11.530;2023-10-19T04:22:48;10.13;;;9.23;;
35364;SDS011;21464;48.112;11.530;2023-10-19T04:25:16;10.57;;;9.35;;
35364;SDS011;21464;48.112;11.530;2023-10-19T04:27:47;10.75;;;9.40;;
35364;SDS011;21464;48.112;11.530;2023-10-19T04:30:15;9.60;;;8.70;;
35364;SDS011;21464;48.112;11.530;2023-10-19T04:32:48;10.27;;;8.73;;
35364;SDS011;21464;48.112;11.530;2023-10-19T04:35:15;10.52;;;9.57;;
35364;SDS011;21464;48.112;11.530;2023-10-19T04:37:52;10.77;;;9.68;;
35364;SDS011;21464;48.112;11.530;2023-10-19T04:40:19;17.17;;;15.38;;
35364;SDS011;21464;48.112;11.530;2023-10-19T04:42:47;12.60;;;11.30;;
35364;SDS011;21464;48.112;11.530;2023-10-19T04:45:14;12.10;;;9.95;;
35364;SDS011;21464;48.112;11.530;2023-10-19T04:47:40;10.88;;;9.90;;
35364;SDS011;21464;48.112;11.530;2023-10-19T04:50:07;11.25;;;10.18;;
35364;SDS011;21464;48.112;11.530;2023-10-19T04:52:34;10.45;;;9.55;;
35364;SDS011;21464;48.112;11.530;2023-10-19T04:55:00;10.77;;;9.07;;
35364;SDS011;21464;48.112;11.530;2023-10-19T04:57:28;7.88;;;7.18;;
35364;SDS011;21464;48.112;11.530;2023-10-19T04:59:54;7.68;;;6.90;;
35364;SDS011;21464;48.112;11.530;2023-10-19T05:02:21;9.73;;;8.77;;
35364;SDS011;21464;48.112;11.530;2023-10-19T05:04:47;9.10;;;8.20;;
35364;SDS011;21464;48.112;11.530;2023-10-19T05:07:14;9.10;;;8.20;;
35364;SDS011;21464;48.112;11.530;2023-10-19T05:09:42;9.18;;;8.20;;
35364;SDS011;21464;48.112;11.530;2023-10-19T05:12:09;9.98;;;8.90;;
35364;SDS011;21464;48.112;11.530;2023-10-19T05:14:40;9.82;;;8.65;;
35364;SDS011;21464;48.112;11.530;2023-10-19T05:17:07;10.10;;;9.10;;
35364;SDS011;21464;48.112;11.530;2023-10-19T05:19:38;9.57;;;8.60;;
35364;SDS011;21464;48.112;11.530;2023-10-19T05:22:05;9.82;;;8.68;;
35364;SDS011;21464;48.112;11.530;2023-10-19T05:24:33;9.73;;;8.70;;
35364;SDS011;21464;48.112;11.530;2023-10-19T05:26:59;10.05;;;8.93;;
35364;SDS011;21464;48.112;11.530;2023-10-19T05:29:25;17.63;;;13.30;;
35364;SDS011;21464;48.112;11.530;2023-10-19T05:31:52;11.98;;;10.50;;
35364;SDS011;21464;48.112;11.530;2023-10-19T05:34:22;28.40;;;21.25;;
35364;SDS011;21464;48.112;11.530;2023-10-19T05:37:02;27.98;;;19.30;;
35364;SDS011;21464;48.112;11.530;2023-10-19T05:39:29;15.40;;;11.32;;
35364;SDS011;21464;48.112;11.530;2023-10-19T05:41:57;8.75;;;7.47;;
35364;SDS011;21464;48.112;11.530;2023-10-19T05:44:27;6.57;;;5.88;;
35364;SDS011;21464;48.112;11.530;2023-10-19T05:46:56;7.57;;;5.53;;
35364;SDS011;21464;48.112;11.530;2023-10-19T05:49:24;16.65;;;12.75;;
35364;SDS011;21464;48.112;11.530;2023-10-19T05:51:50;21.42;;;16.77;;
35364;SDS011;21464;48.112;11.530;2023-10-19T05:54:17;22.02;;;15.45;;
35364;SDS011;21464;48.112;11.530;2023-10-19T05:56:43;14.25;;;11.32;;
35364;SDS011;21464;48.112;11.530;2023-10-19T05:59:09;13.25;;;10.45;;
35364;SDS011;21464;48.112;11.530;2023-10-19T06:01:36;10.35;;;9.18;;
35364;SDS011;21464;48.112;11.530;2023-10-19T06:04:07;12.30;;;9.88;;
35364;SDS011;21464;48.112;11.530;2023-10-19T06:06:33;9.45;;;7.90;;
35364;SDS011;21464;48.112;11.530;2023-10-19T06:09:00;9.77;;;8.07;;
35364;SDS011;21464;48.112;11.530;2023-10-19T06:11:28;9.25;;;7.53;;
35364;SDS011;21464;48.112;11.530;2023-10-19T06:13:58;7.10;;;5.60;;
35364;SDS011;21464;48.112;11.530;2023-10-19T06:16:25;4.65;;;4.25;;
35364;SDS011;21464;48.112;11.530;2023-10-19T06:18:51;6.20;;;5.60;;
35364;SDS011;21464;48.112;11.530;2023-10-19T06:21:18;5.15;;;4.00;;
35364;SDS011;21464;48.112;11.530;2023-10-19T06:23:45;5.22;;;4.70;;
35364;SDS011;21464;48.112;11.530;2023-10-19T06:26:11;5.90;;;5.30;;
35364;SDS011;21464;48.112;11.530;2023-10-19T06:28:39;5.68;;;4.70;;
35364;SDS011;21464;48.112;11.530;2023-10-19T06:31:06;4.10;;;3.70;;
35364;SDS011;21464;48.112;11.530;2023-10-19T06:33:33;4.18;;;3.75;;
35364;SDS011;21464;48.112;11.530;2023-10-19T06:35:59;4.72;;;4.32;;
35364;SDS011;21464;48.112;11.530;2023-10-19T06:38:29;4.97;;;4.57;;
35364;SDS011;21464;48.112;11.530;2023-10-19T06:40:57;5.18;;;4.68;;
35364;SDS011;21464;48.112;11.530;2023-10-19T06:43:24;7.22;;;6.53;;
35364;SDS011;21464;48.112;11.530;2023-10-19T06:45:55;6.80;;;6.10;;
35364;SDS011;21464;48.112;11.530;2023-10-19T06:48:21;8.00;;;5.88;;
35364;SDS011;21464;48.112;11.530;2023-10-19T06:50:47;5.32;;;3.97;;
35364;SDS011;21464;48.112;11.530;2023-10-19T06:53:13;6.53;;;5.47;;
35364;SDS011;21464;48.112;11.530;2023-10-19T06:55:40;8.43;;;5.85;;
35364;SDS011;21464;48.112;11.530;2023-10-19T06:58:06;6.60;;;6.00;;
35364;SDS011;21464;48.112;11.530;2023-10-19T07:00:35;5.88;;;3.95;;
35364;SDS011;21464;48.112;11.530;2023-10-19T07:03:08;4.90;;;4.38;;
35364;SDS011;21464;48.112;11.530;2023-10-19T07:05:34;4.90;;;4.47;;
35364;SDS011;21464;48.112;11.530;2023-10-19T07:08:00;4.40;;;4.00;;
35364;SDS011;21464;48.112;11.530;2023-10-19T07:10:28;4.53;;;4.13;;
35364;SDS011;21464;48.112;11.530;2023-10-19T07:12:55;5.55;;;4.43;;
35364;SDS011;21464;48.112;11.530;2023-10-19T07:15:22;7.72;;;6.32;;
35364;SDS011;21464;48.112;11.530;2023-10-19T07:17:49;8.38;;;6.05;;
35364;SDS011;21464;48.112;11.530;2023-10-19T07:20:18;7.03;;;5.80;;
35364;SDS011;21464;48.112;11.530;2023-10-19T07:23:02;5.90;;;4.65;;
35364;SDS011;21464;48.112;11.530;2023-10-19T07:25:36;7.95;;;5.90;;
35364;SDS011;21464;48.112;11.530;2023-10-19T07:28:22;14.27;;;10.30;;
35364;SDS011;21464;48.112;11.530;2023-10-19T07:30:52;27.17;;;19.67;;
35364;SDS011;21464;48.112;11.530;2023-10-19T07:33:18;12.75;;;10.40;;
35364;SDS011;21464;48.112;11.530;2023-10-19T07:35:46;8.15;;;5.82;;
35364;SDS011;21464;48.112;11.530;2023-10-19T07:38:13;7.82;;;5.90;;
35364;SDS011;21464;48.112;11.530;2023-10-19T07:40:40;6.45;;;5.68;;
35364;SDS011;21464;48.112;11.530;2023-10-19T07:43:07;9.88;;;6.88;;
35364;SDS011;21464;48.112;11.530;2023-10-19T07:45:34;8.10;;;6.72;;
35364;SDS011;21464;48.112;11.530;2023-10-19T07:48:00;7.10;;;5.38;;
35364;SDS011;21464;48.112;11.530;2023-10-19T07:50:33;7.30;;;5.53;;
35364;SDS011;21464;48.112;11.530;2023-10-19T07:53:00;6.82;;;5.22;;
35364;SDS011;21464;48.112;11.530;2023-10-19T07:55:26;7.35;;;4.80;;
35364;SDS011;21464;48.112;11.530;2023-10-19T07:57:53;4.75;;;4.22;;
35364;SDS011;21464;48.112;11.530;2023-10-19T08:00:20;5.72;;;5.22;;
35364;SDS011;21464;48.112;11.530;2023-10-19T08:02:47;4.97;;;4.18;;
35364;SDS011;21464;48.112;11.530;2023-10-19T08:05:13;4.20;;;3.80;;
35364;SDS011;21464;48.112;11.530;2023-10-19T08:07:40;4.45;;;3.50;;
35364;SDS011;21464;48.112;11.530;2023-10-19T08:10:09;6.05;;;3.65;;
35364;SDS011;21464;48.112;11.530;2023-10-19T08:12:37;5.90;;;3.97;;
35364;SDS011;21464;48.112;11.530;2023-10-19T08:15:04;6.80;;;4.72;;
35364;SDS011;21464;48.112;11.530;2023-10-19T08:17:32;6.60;;;4.88;;
35364;SDS011;21464;48.112;11.530;2023-10-19T08:19:59;10.68;;;8.13;;
35364;SDS011;21464;48.112;11.530;2023-10-19T08:22:29;9.00;;;5.40;;
35364;SDS011;21464;48.112;11.530;2023-10-19T08:24:56;10.40;;;6.80;;
35364;SDS011;21464;48.112;11.530;2023-10-19T08:27:22;8.82;;;5.57;;
35364;SDS011;21464;48.112;11.530;2023-10-19T08:29:49;10.45;;;6.68;;
35364;SDS011;21464;48.112;11.530;2023-10-19T08:32:16;7.63;;;5.53;;
35364;SDS011;21464;48.112;11.530;2023-10-19T08:34:42;8.48;;;6.60;;
35364;SDS011;21464;48.112;11.530;2023-10-19T08:37:09;6.00;;;4.30;;
35364;SDS011;21464;48.112;11.530;2023-10-19T08:39:35;7.22;;;4.28;;
35364;SDS011;21464;48.112;11.530;2023-10-19T08:42:02;6.63;;;5.07;;
35364;SDS011;21464;48.112;11.530;2023-10-19T08:44:30;7.90;;;4.60;;
35364;SDS011;21464;48.112;11.530;2023-10-19T08:46:57;6.25;;;4.95;;
35364;SDS011;21464;48.112;11.530;2023-10-19T08:49:25;7.25;;;4.00;;
35364;SDS011;21464;48.112;11.530;2023-10-19T08:51:54;6.20;;;4.60;;
35364;SDS011;21464;48.112;11.530;2023-10-19T08:54:20;4.75;;;4.03;;
35364;SDS011;21464;48.112;11.530;2023-10-19T08:56:46;4.85;;;4.35;;
35364;SDS011;21464;48.112;11.530;2023-10-19T08:59:15;8.05;;;4.65;;
35364;SDS011;21464;48.112;11.530;2023-10-19T09:01:42;6.28;;;3.85;;
35364;SDS011;21464;48.112;11.530;2023-10-19T09:04:12;4.47;;;3.50;;
35364;SDS011;21464;48.112;11.530;2023-10-19T09:06:40;5.85;;;3.63;;
35364;SDS011;21464;48.112;11.530;2023-10-19T09:09:10;3.67;;;3.38;;
35364;SDS011;21464;48.112;11.530;2023-10-19T09:11:48;3.90;;;3.50;;
35364;SDS011;21464;48.112;11.530;2023-10-19T09:14:15;3.80;;;3.42;;
35364;SDS011;21464;48.112;11.530;2023-10-19T09:16:54;4.50;;;3.47;;
35364;SDS011;21464;48.112;11.530;2023-10-19T09:19:37;5.25;;;3.80;;
35364;SDS011;21464;48.112;11.530;2023-10-19T09:22:10;5.20;;;3.65;;
35364;SDS011;21464;48.112;11.530;2023-10-19T09:24:53;4.32;;;3.65;;
35364;SDS011;21464;48.112;11.530;2023-10-19T09:27:20;5.75;;;3.80;;
35364;SDS011;21464;48.112;11.530;2023-10-19T09:29:49;3.58;;;3.10;;
35364;SDS011;21464;48.112;11.530;2023-10-19T09:32:19;6.00;;;4.00;;
35364;SDS011;21464;48.112;11.530;2023-10-19T09:34:45;4.45;;;3.50;;
35364;SDS011;21464;48.112;11.530;2023-10-19T09:37:14;4.10;;;3.70;;
35364;SDS011;21464;48.112;11.530;2023-10-19T09:42:31;5.03;;;4.15;;
35364;SDS011;21464;48.112;11.530;2023-10-19T09:44:59;6.00;;;4.70;;
35364;SDS011;21464;48.112;11.530;2023-10-19T09:47:34;5.65;;;4.05;;
35364;SDS011;21464;48.112;11.530;2023-10-19T09:50:02;4.43;;;3.30;;
35364;SDS011;21464;48.112;11.530;2023-10-19T09:52:32;4.85;;;3.38;;
35364;SDS011;21464;48.112;11.530;2023-10-19T09:55:00;5.28;;;3.22;;
35364;SDS011;21464;48.112;11.530;2023-10-19T09:57:54;6.45;;;4.50;;
35364;SDS011;21464;48.112;11.530;2023-10-19T10:00:22;6.57;;;3.70;;
35364;SDS011;21464;48.112;11.530;2023-10-19T10:02:52;4.88;;;3.67;;
35364;SDS011;21464;48.112;11.530;2023-10-19T10:08:27;8.57;;;5.10;;
35364;SDS011;21464;48.112;11.530;2023-10-19T10:10:55;6.75;;;4.20;;
35364;SDS011;21464;48.112;11.530;2023-10-19T10:15:52;26.25;;;20.33;;
35364;SDS011;21464;48.112;11.530;2023-10-19T10:18:46;11.63;;;8.38;;
35364;SDS011;21464;48.112;11.530;2023-10-19T10:21:14;9.90;;;6.10;;
35364;SDS011;21464;48.112;11.530;2023-10-19T10:26:10;6.75;;;5.05;;
35364;SDS011;21464;48.112;11.530;2023-10-19T10:28:38;9.30;;;5.28;;
35364;SDS011;21464;48.112;11.530;2023-10-19T10:31:14;5.55;;;4.20;;
35364;SDS011;21464;48.112;11.530;2023-10-19T10:34:45;9.27;;;6.70;;
35364;SDS011;21464;48.112;11.530;2023-10-19T10:37:14;10.75;;;6.57;;
35364;SDS011;21464;48.112;11.530;2023-10-19T10:39:41;12.55;;;9.38;;
35364;SDS011;21464;48.112;11.530;2023-10-19T10:42:10;19.52;;;13.15;;
35364;SDS011;21464;48.112;11.530;2023-10-19T10:47:09;5.25;;;4.75;;
35364;SDS011;21464;48.112;11.530;2023-10-19T10:49:55;6.07;;;4.43;;
35364;SDS011;21464;48.112;11.530;2023-10-19T10:52:29;6.30;;;5.28;;
35364;SDS011;21464;48.112;11.530;2023-10-19T10:54:58;5.68;;;4.68;;
35364;SDS011;21464;48.112;11.530;2023-10-19T10:57:31;4.57;;;4.20;;
35364;SDS011;21464;48.112;11.530;2023-10-19T11:03:01;5.57;;;4.40;;
35364;SDS011;21464;48.112;11.530;2023-10-19T11:05:34;7.22;;;6.35;;
35364;SDS011;21464;48.112;11.530;2023-10-19T11:10:46;20.10;;;11.85;;
35364;SDS011;21464;48.112;11.530;2023-10-19T11:13:14;17.42;;;10.95;;
35364;SDS011;21464;48.112;11.530;2023-10-19T11:15:49;8.32;;;5.03;;
35364;SDS011;21464;48.112;11.530;2023-10-19T11:18:35;6.40;;;4.90;;
35364;SDS011;21464;48.112;11.530;2023-10-19T11:21:05;6.50;;;5.57;;
35364;SDS011;21464;48.112;11.530;2023-10-19T11:23:36;6.10;;;4.63;;
35364;SDS011;21464;48.112;11.530;2023-10-19T11:26:10;4.88;;;3.92;;
35364;SDS011;21464;48.112;11.530;2023-10-19T11:28:37;5.10;;;3.70;;
35364;SDS011;21464;48.112;11.530;2023-10-19T11:31:17;7.07;;;4.47;;
35364;SDS011;21464;48.112;11.530;2023-10-19T11:33:45;5.35;;;4.03;;
35364;SDS011;21464;48.112;11.530;2023-10-19T11:36:14;7.70;;;4.20;;
35364;SDS011;21464;48.112;11.530;2023-10-19T11:38:45;5.78;;;3.97;;
35364;SDS011;21464;48.112;11.530;2023-10-19T11:41:12;7.00;;;4.55;;
35364;SDS011;21464;48.112;11.530;2023-10-19T11:43:40;6.47;;;4.88;;
35364;SDS011;21464;48.112;11.530;2023-10-19T11:46:08;4.97;;;3.60;;
35364;SDS011;21464;48.112;11.530;2023-10-19T11:48:36;5.13;;;4.03;;
35364;SDS011;21464;48.112;11.530;2023-10-19T11:51:03;8.77;;;4.28;;
35364;SDS011;21464;48.112;11.530;2023-10-19T11:53:30;6.75;;;4.05;;
35364;SDS011;21464;48.112;11.530;2023-10-19T11:56:05;8.40;;;4.45;;
35364;SDS011;21464;48.112;11.530;2023-10-19T11:58:33;7.75;;;4.00;;
35364;SDS011;21464;48.112;11.530;2023-10-19T12:01:04;5.07;;;4.13;;
35364;SDS011;21464;48.112;11.530;2023-10-19T12:03:41;7.60;;;4.95;;
35364;SDS011;21464;48.112;11.530;2023-10-19T12:09:17;9.27;;;4.30;;
35364;SDS011;21464;48.112;11.530;2023-10-19T12:11:43;6.13;;;4.03;;
35364;SDS011;21464;48.112;11.530;2023-10-19T12:14:13;6.18;;;4.47;;
35364;SDS011;21464;48.112;11.530;2023-10-19T12:16:40;6.65;;;4.28;;
35364;SDS011;21464;48.112;11.530;2023-10-19T12:19:07;8.57;;;4.00;;
35364;SDS011;21464;48.112;11.530;2023-10-19T12:21:33;6.90;;;4.28;;
35364;SDS011;21464;48.112;11.530;2023-10-19T12:23:59;6.90;;;4.70;;
35364;SDS011;21464;48.112;11.530;2023-10-19T12:26:27;7.97;;;4.10;;
35364;SDS011;21464;48.112;11.530;2023-10-19T12:28:55;5.00;;;4.10;;
35364;SDS011;21464;48.112;11.530;2023-10-19T12:31:22;3.72;;;3.40;;
35364;SDS011;21464;48.112;11.530;2023-10-19T12:33:49;6.80;;;3.70;;
35364;SDS011;21464;48.112;11.530;2023-10-19T12:36:15;6.93;;;3.25;;
35364;SDS011;21464;48.112;11.530;2023-10-19T12:38:54;3.58;;;3.13;;
35364;SDS011;21464;48.112;11.530;2023-10-19T12:41:21;4.90;;;3.20;;
35364;SDS011;21464;48.112;11.530;2023-10-19T12:43:47;5.20;;;3.90;;
35364;SDS011;21464;48.112;11.530;2023-10-19T12:46:14;4.30;;;3.60;;
35364;SDS011;21464;48.112;11.530;2023-10-19T12:48:42;6.93;;;3.67;;
35364;SDS011;21464;48.112;11.530;2023-10-19T12:51:14;6.00;;;4.40;;
35364;SDS011;21464;48.112;11.530;2023-10-19T12:53:41;7.47;;;3.53;;
35364;SDS011;21464;48.112;11.530;2023-10-19T12:56:07;7.38;;;3.75;;
35364;SDS011;21464;48.112;11.530;2023-10-19T12:58:37;5.05;;;3.38;;
35364;SDS011;21464;48.112;11.530;2023-10-19T13:01:03;7.60;;;3.97;;
35364;SDS011;21464;48.112;11.530;2023-10-19T13:03:36;5.53;;;4.60;;
35364;SDS011;21464;48.112;11.530;2023-10-19T13:06:04;9.57;;;6.72;;
35364;SDS011;21464;48.112;11.530;2023-10-19T13:08:33;6.97;;;5.20;;
35364;SDS011;21464;48.112;11.530;2023-10-19T13:10:59;7.45;;;6.07;;
35364;SDS011;21464;48.112;11.530;2023-10-19T13:13:25;11.68;;;6.72;;
35364;SDS011;21464;48.112;11.530;2023-10-19T13:15:52;5.55;;;4.78;;
35364;SDS011;21464;48.112;11.530;2023-10-19T13:18:19;9.32;;;4.03;;
35364;SDS011;21464;48.112;11.530;2023-10-19T13:20:47;8.65;;;5.90;;
35364;SDS011;21464;48.112;11.530;2023-10-19T13:23:14;4.00;;;3.05;;
35364;SDS011;21464;48.112;11.530;2023-10-19T13:25:47;4.50;;;3.40;;
35364;SDS011;21464;48.112;11.530;2023-10-19T13:28:23;3.45;;;3.10;;
35364;SDS011;21464;48.112;11.530;2023-10-19T13:30:50;4.47;;;3.17;;
35364;SDS011;21464;48.112;11.530;2023-10-19T13:33:17;6.65;;;5.32;;
35364;SDS011;21464;48.112;11.530;2023-10-19T13:35:45;6.15;;;3.95;;
35364;SDS011;21464;48.112;11.530;2023-10-19T13:38:11;3.50;;;3.20;;
35364;SDS011;21464;48.112;11.530;2023-10-19T13:40:40;4.00;;;3.47;;
35364;SDS011;21464;48.112;11.530;2023-10-19T13:43:07;5.00;;;4.13;;
35364;SDS011;21464;48.112;11.530;2023-10-19T13:45:53;3.83;;;3.30;;
35364;SDS011;21464;48.112;11.530;2023-10-19T13:48:20;3.08;;;2.83;;
35364;SDS011;21464;48.112;11.530;2023-10-19T13:50:47;5.32;;;3.40;;
35364;SDS011;21464;48.112;11.530;2023-10-19T13:53:15;5.45;;;3.80;;
35364;SDS011;21464;48.112;11.530;2023-10-19T13:55:42;4.18;;;2.92;;
35364;SDS011;21464;48.112;11.530;2023-10-19T13:58:08;3.95;;;2.70;;
35364;SDS011;21464;48.112;11.530;2023-10-19T14:00:35;3.90;;;2.80;;
35364;SDS011;21464;48.112;11.530;2023-10-19T14:03:07;5.78;;;3.10;;
35364;SDS011;21464;48.112;11.530;2023-10-19T14:05:40;3.50;;;3.20;;
35364;SDS011;21464;48.112;11.530;2023-10-19T14:08:14;4.95;;;3.22;;
35364;SDS011;21464;48.112;11.530;2023-10-19T14:10:41;6.18;;;3.80;;
35364;SDS011;21464;48.112;11.530;2023-10-19T14:13:07;5.22;;;3.10;;
35364;SDS011;21464;48.112;11.530;2023-10-19T14:15:34;6.72;;;3.75;;
35364;SDS011;21464;48.112;11.530;2023-10-19T14:21:22;8.95;;;5.63;;
35364;SDS011;21464;48.112;11.530;2023-10-19T14:23:52;6.38;;;4.25;;
35364;SDS011;21464;48.112;11.530;2023-10-19T14:26:19;10.88;;;5.63;;
35364;SDS011;21464;48.112;11.530;2023-10-19T14:28:46;7.60;;;5.72;;
35364;SDS011;21464;48.112;11.530;2023-10-19T14:31:12;6.40;;;4.53;;
35364;SDS011;21464;48.112;11.530;2023-10-19T14:33:39;5.75;;;4.85;;
35364;SDS011;21464;48.112;11.530;2023-10-19T14:36:05;5.28;;;4.68;;
35364;SDS011;21464;48.112;11.530;2023-10-19T14:38:32;7.65;;;5.00;;
35364;SDS011;21464;48.112;11.530;2023-10-19T14:40:59;5.18;;;4.65;;
35364;SDS011;21464;48.112;11.530;2023-10-19T14:43:25;8.68;;;4.57;;
35364;SDS011;21464;48.112;11.530;2023-10-19T14:45:51;5.68;;;5.00;;
35364;SDS011;21464;48.112;11.530;2023-10-19T14:48:17;6.85;;;5.35;;
35364;SDS011;21464;48.112;11.530;2023-10-19T14:50:45;6.43;;;5.60;;
35364;SDS011;21464;48.112;11.530;2023-10-19T14:53:12;6.30;;;5.65;;
35364;SDS011;21464;48.112;11.530;2023-10-19T14:55:39;6.65;;;5.38;;
35364;SDS011;21464;48.112;11.530;2023-10-19T14:58:05;6.85;;;5.70;;
35364;SDS011;21464;48.112;11.530;2023-10-19T15:00:32;7.47;;;6.50;;
35364;SDS011;21464;48.112;11.530;2023-10-19T15:03:03;6.72;;;6.13;;
35364;SDS011;21464;48.112;11.530;2023-10-19T15:05:33;7.82;;;7.00;;
35364;SDS011;21464;48.112;11.530;2023-10-19T15:08:03;6.70;;;6.00;;